sensor_id;sensor_type;location;lat;lon;timestamp;P1;durP1;ratioP1;P2;durP2;ratioP2
33740;SDS011;20065;48.380;10.892;2023-04-08T00:01:30;13.77;;;9.60;;
33740;SDS011;20065;48.380;10.892;2023-04-08T00:04:16;13.68;;;8.52;;
33740;SDS011;20065;48.380;10.892;2023-04-08T00:07:02;12.23;;;9.20;;
33740;SDS011;20065;48.380;10.892;2023-04-08T00:09:48;14.60;;;7.95;;
33740;SDS011;20065;48.380;10.892;2023-04-08T00:12:35;14.90;;;8.85;;
33740;SDS011;20065;48.380;10.892;2023-04-08T00:18:15;16.83;;;9.05;;
33740;SDS011;20065;48.380;10.892;2023-04-08T00:21:02;11.98;;;7.80;;
33740;SDS011;20065;48.380;10.892;2023-04-08T00:23:49;13.18;;;8.88;;
33740;SDS011;20065;48.380;10.892;2023-04-08T00:26:35;13.18;;;7.22;;
33740;SDS011;20065;48.380;10.892;2023-04-08T00:29:22;20.77;;;9.32;;
33740;SDS011;20065;48.380;10.892;2023-04-08T00:32:08;12.10;;;8.43;;
33740;SDS011;20065;48.380;10.892;2023-04-08T00:34:54;13.23;;;8.10;;
33740;SDS011;20065;48.380;10.892;2023-04-08T00:37:44;15.35;;;9.70;;
33740;SDS011;20065;48.380;10.892;2023-04-08T00:40:30;13.00;;;9.55;;
33740;SDS011;20065;48.380;10.892;2023-04-08T00:43:16;16.02;;;8.82;;
33740;SDS011;20065;48.380;10.892;2023-04-08T00:46:05;15.32;;;8.45;;
33740;SDS011;20065;48.380;10.892;2023-04-08T00:48:51;13.50;;;8.93;;
33740;SDS011;20065;48.380;10.892;2023-04-08T00:51:38;12.63;;;8.60;;
33740;SDS011;20065;48.380;10.892;2023-04-08T00:54:25;12.40;;;9.15;;
33740;SDS011;20065;48.380;10.892;2023-04-08T00:57:11;15.48;;;10.50;;
33740;SDS011;20065;48.380;10.892;2023-04-08T00:59:57;13.65;;;9.15;;
33740;SDS011;20065;48.380;10.892;2023-04-08T01:02:47;15.13;;;9.30;;
33740;SDS011;20065;48.380;10.892;2023-04-08T01:05:44;14.15;;;9.52;;
33740;SDS011;20065;48.380;10.892;2023-04-08T01:08:36;15.27;;;9.23;;
33740;SDS011;20065;48.380;10.892;2023-04-08T01:11:24;13.98;;;9.63;;
33740;SDS011;20065;48.380;10.892;2023-04-08T01:14:15;22.02;;;10.20;;
33740;SDS011;20065;48.380;10.892;2023-04-08T01:17:05;13.95;;;8.85;;
33740;SDS011;20065;48.380;10.892;2023-04-08T01:19:53;18.75;;;10.10;;
33740;SDS011;20065;48.380;10.892;2023-04-08T01:22:57;19.25;;;10.52;;
33740;SDS011;20065;48.380;10.892;2023-04-08T01:25:48;20.08;;;11.23;;
33740;SDS011;20065;48.380;10.892;2023-04-08T01:28:36;16.13;;;9.50;;
33740;SDS011;20065;48.380;10.892;2023-04-08T01:31:23;14.48;;;9.82;;
33740;SDS011;20065;48.380;10.892;2023-04-08T01:34:10;15.85;;;10.75;;
33740;SDS011;20065;48.380;10.892;2023-04-08T01:37:00;16.40;;;9.90;;
33740;SDS011;20065;48.380;10.892;2023-04-08T01:39:47;15.30;;;10.90;;
33740;SDS011;20065;48.380;10.892;2023-04-08T01:42:35;16.50;;;10.10;;
33740;SDS011;20065;48.380;10.892;2023-04-08T01:45:22;15.45;;;10.82;;
33740;SDS011;20065;48.380;10.892;2023-04-08T01:48:09;17.77;;;11.73;;
33740;SDS011;20065;48.380;10.892;2023-04-08T01:50:58;18.33;;;12.20;;
33740;SDS011;20065;48.380;10.892;2023-04-08T01:53:45;16.35;;;11.80;;
33740;SDS011;20065;48.380;10.892;2023-04-08T01:56:32;19.70;;;12.13;;
33740;SDS011;20065;48.380;10.892;2023-04-08T01:59:23;19.33;;;12.70;;
33740;SDS011;20065;48.380;10.892;2023-04-08T02:02:14;20.05;;;13.30;;
33740;SDS011;20065;48.380;10.892;2023-04-08T02:05:02;17.42;;;12.10;;
33740;SDS011;20065;48.380;10.892;2023-04-08T02:07:48;20.52;;;12.65;;
33740;SDS011;20065;48.380;10.892;2023-04-08T02:10:35;22.35;;;13.38;;
33740;SDS011;20065;48.380;10.892;2023-04-08T02:13:23;19.27;;;13.77;;
33740;SDS011;20065;48.380;10.892;2023-04-08T02:16:13;21.35;;;14.50;;
33740;SDS011;20065;48.380;10.892;2023-04-08T02:19:06;23.15;;;14.95;;
33740;SDS011;20065;48.380;10.892;2023-04-08T02:22:04;21.17;;;14.43;;
33740;SDS011;20065;48.380;10.892;2023-04-08T02:24:52;23.25;;;16.13;;
33740;SDS011;20065;48.380;10.892;2023-04-08T02:27:39;21.13;;;14.30;;
33740;SDS011;20065;48.380;10.892;2023-04-08T02:30:27;23.48;;;16.35;;
33740;SDS011;20065;48.380;10.892;2023-04-08T02:33:16;23.05;;;16.38;;
33740;SDS011;20065;48.380;10.892;2023-04-08T02:36:10;22.67;;;17.23;;
33740;SDS011;20065;48.380;10.892;2023-04-08T02:38:57;26.15;;;15.60;;
33740;SDS011;20065;48.380;10.892;2023-04-08T02:41:43;26.35;;;16.35;;
33740;SDS011;20065;48.380;10.892;2023-04-08T02:44:29;26.70;;;17.75;;
33740;SDS011;20065;48.380;10.892;2023-04-08T02:47:20;27.63;;;16.50;;
33740;SDS011;20065;48.380;10.892;2023-04-08T02:50:06;27.17;;;17.92;;
33740;SDS011;20065;48.380;10.892;2023-04-08T02:52:52;27.70;;;17.77;;
33740;SDS011;20065;48.380;10.892;2023-04-08T02:55:39;27.20;;;18.58;;
33740;SDS011;20065;48.380;10.892;2023-04-08T02:58:25;32.15;;;18.85;;
33740;SDS011;20065;48.380;10.892;2023-04-08T03:01:11;29.83;;;20.05;;
33740;SDS011;20065;48.380;10.892;2023-04-08T03:03:57;26.90;;;18.50;;
33740;SDS011;20065;48.380;10.892;2023-04-08T03:06:43;25.88;;;17.92;;
33740;SDS011;20065;48.380;10.892;2023-04-08T03:09:29;28.95;;;19.67;;
33740;SDS011;20065;48.380;10.892;2023-04-08T03:12:15;35.72;;;19.05;;
33740;SDS011;20065;48.380;10.892;2023-04-08T03:15:01;29.85;;;20.23;;
33740;SDS011;20065;48.380;10.892;2023-04-08T03:17:48;32.38;;;20.30;;
33740;SDS011;20065;48.380;10.892;2023-04-08T03:20:34;33.22;;;20.17;;
33740;SDS011;20065;48.380;10.892;2023-04-08T03:23:20;28.92;;;19.75;;
33740;SDS011;20065;48.380;10.892;2023-04-08T03:26:06;30.35;;;22.13;;
33740;SDS011;20065;48.380;10.892;2023-04-08T03:28:53;28.92;;;20.88;;
33740;SDS011;20065;48.380;10.892;2023-04-08T03:31:39;28.95;;;20.45;;
33740;SDS011;20065;48.380;10.892;2023-04-08T03:34:25;31.33;;;23.00;;
33740;SDS011;20065;48.380;10.892;2023-04-08T03:37:11;31.27;;;21.80;;
33740;SDS011;20065;48.380;10.892;2023-04-08T03:39:57;34.10;;;22.67;;
33740;SDS011;20065;48.380;10.892;2023-04-08T03:42:44;33.72;;;21.27;;
33740;SDS011;20065;48.380;10.892;2023-04-08T03:45:30;33.22;;;22.42;;
33740;SDS011;20065;48.380;10.892;2023-04-08T03:48:16;33.58;;;22.20;;
33740;SDS011;20065;48.380;10.892;2023-04-08T03:51:02;34.40;;;22.33;;
33740;SDS011;20065;48.380;10.892;2023-04-08T03:53:48;31.83;;;20.70;;
33740;SDS011;20065;48.380;10.892;2023-04-08T03:56:35;35.85;;;24.17;;
33740;SDS011;20065;48.380;10.892;2023-04-08T03:59:21;37.40;;;22.63;;
33740;SDS011;20065;48.380;10.892;2023-04-08T04:02:07;40.08;;;22.77;;
33740;SDS011;20065;48.380;10.892;2023-04-08T04:04:53;38.92;;;21.60;;
33740;SDS011;20065;48.380;10.892;2023-04-08T04:07:39;31.08;;;20.10;;
33740;SDS011;20065;48.380;10.892;2023-04-08T04:10:26;34.60;;;22.65;;
33740;SDS011;20065;48.380;10.892;2023-04-08T04:13:12;34.20;;;21.60;;
33740;SDS011;20065;48.380;10.892;2023-04-08T04:15:58;34.40;;;22.05;;
33740;SDS011;20065;48.380;10.892;2023-04-08T04:18:44;33.72;;;22.90;;
33740;SDS011;20065;48.380;10.892;2023-04-08T04:21:31;32.00;;;21.52;;
33740;SDS011;20065;48.380;10.892;2023-04-08T04:24:17;32.72;;;21.88;;
33740;SDS011;20065;48.380;10.892;2023-04-08T04:27:03;36.80;;;22.70;;
33740;SDS011;20065;48.380;10.892;2023-04-08T04:29:49;32.97;;;22.90;;
33740;SDS011;20065;48.380;10.892;2023-04-08T04:32:35;32.78;;;22.90;;
33740;SDS011;20065;48.380;10.892;2023-04-08T04:35:21;33.97;;;22.95;;
33740;SDS011;20065;48.380;10.892;2023-04-08T04:38:07;37.20;;;23.50;;
33740;SDS011;20065;48.380;10.892;2023-04-08T04:40:56;37.35;;;23.88;;
33740;SDS011;20065;48.380;10.892;2023-04-08T04:43:43;32.78;;;22.95;;
33740;SDS011;20065;48.380;10.892;2023-04-08T04:46:30;33.40;;;22.10;;
33740;SDS011;20065;48.380;10.892;2023-04-08T04:49:16;33.15;;;23.40;;
33740;SDS011;20065;48.380;10.892;2023-04-08T04:52:02;35.20;;;23.23;;
33740;SDS011;20065;48.380;10.892;2023-04-08T04:54:49;35.38;;;23.42;;
33740;SDS011;20065;48.380;10.892;2023-04-08T04:57:36;36.35;;;24.25;;
33740;SDS011;20065;48.380;10.892;2023-04-08T05:00:22;34.30;;;23.48;;
33740;SDS011;20065;48.380;10.892;2023-04-08T05:03:08;35.40;;;23.45;;
33740;SDS011;20065;48.380;10.892;2023-04-08T05:05:54;35.00;;;23.08;;
33740;SDS011;20065;48.380;10.892;2023-04-08T05:08:40;39.20;;;23.38;;
33740;SDS011;20065;48.380;10.892;2023-04-08T05:11:26;39.30;;;25.08;;
33740;SDS011;20065;48.380;10.892;2023-04-08T05:14:12;37.65;;;24.92;;
33740;SDS011;20065;48.380;10.892;2023-04-08T05:16:59;41.38;;;24.10;;
33740;SDS011;20065;48.380;10.892;2023-04-08T05:19:45;33.92;;;23.88;;
33740;SDS011;20065;48.380;10.892;2023-04-08T05:22:31;42.05;;;25.33;;
33740;SDS011;20065;48.380;10.892;2023-04-08T05:25:17;39.65;;;26.30;;
33740;SDS011;20065;48.380;10.892;2023-04-08T05:28:04;40.97;;;26.65;;
33740;SDS011;20065;48.380;10.892;2023-04-08T05:30:51;38.25;;;25.10;;
33740;SDS011;20065;48.380;10.892;2023-04-08T05:33:37;37.13;;;24.70;;
33740;SDS011;20065;48.380;10.892;2023-04-08T05:36:24;40.15;;;25.35;;
33740;SDS011;20065;48.380;10.892;2023-04-08T05:39:10;37.17;;;23.65;;
33740;SDS011;20065;48.380;10.892;2023-04-08T05:41:56;37.88;;;23.80;;
33740;SDS011;20065;48.380;10.892;2023-04-08T05:44:43;36.53;;;24.50;;
33740;SDS011;20065;48.380;10.892;2023-04-08T05:47:29;48.30;;;26.65;;
33740;SDS011;20065;48.380;10.892;2023-04-08T05:50:15;37.33;;;25.45;;
33740;SDS011;20065;48.380;10.892;2023-04-08T05:53:01;35.13;;;23.65;;
33740;SDS011;20065;48.380;10.892;2023-04-08T05:55:47;43.95;;;25.50;;
33740;SDS011;20065;48.380;10.892;2023-04-08T05:58:33;39.55;;;25.40;;
33740;SDS011;20065;48.380;10.892;2023-04-08T06:01:20;37.53;;;24.85;;
33740;SDS011;20065;48.380;10.892;2023-04-08T06:04:06;43.58;;;26.25;;
33740;SDS011;20065;48.380;10.892;2023-04-08T06:06:52;33.40;;;23.83;;
33740;SDS011;20065;48.380;10.892;2023-04-08T06:09:39;35.08;;;22.25;;
33740;SDS011;20065;48.380;10.892;2023-04-08T06:12:25;37.00;;;24.17;;
33740;SDS011;20065;48.380;10.892;2023-04-08T06:15:11;33.50;;;23.05;;
33740;SDS011;20065;48.380;10.892;2023-04-08T06:17:57;32.72;;;21.75;;
33740;SDS011;20065;48.380;10.892;2023-04-08T06:20:43;37.05;;;22.27;;
33740;SDS011;20065;48.380;10.892;2023-04-08T06:23:30;32.03;;;21.63;;
33740;SDS011;20065;48.380;10.892;2023-04-08T06:26:16;32.45;;;21.45;;
33740;SDS011;20065;48.380;10.892;2023-04-08T06:29:02;29.65;;;20.15;;
33740;SDS011;20065;48.380;10.892;2023-04-08T06:31:49;29.52;;;19.30;;
33740;SDS011;20065;48.380;10.892;2023-04-08T06:34:35;27.23;;;18.90;;
33740;SDS011;20065;48.380;10.892;2023-04-08T06:37:21;28.85;;;19.75;;
33740;SDS011;20065;48.380;10.892;2023-04-08T06:40:08;24.58;;;18.45;;
33740;SDS011;20065;48.380;10.892;2023-04-08T06:42:55;27.70;;;19.25;;
33740;SDS011;20065;48.380;10.892;2023-04-08T06:45:53;25.73;;;18.35;;
33740;SDS011;20065;48.380;10.892;2023-04-08T06:48:39;27.80;;;18.08;;
33740;SDS011;20065;48.380;10.892;2023-04-08T06:51:26;25.27;;;18.88;;
33740;SDS011;20065;48.380;10.892;2023-04-08T06:54:12;20.00;;;16.02;;
33740;SDS011;20065;48.380;10.892;2023-04-08T06:56:58;27.50;;;18.95;;
33740;SDS011;20065;48.380;10.892;2023-04-08T06:59:45;21.83;;;16.48;;
33740;SDS011;20065;48.380;10.892;2023-04-08T07:02:31;25.67;;;17.23;;
33740;SDS011;20065;48.380;10.892;2023-04-08T07:05:17;21.88;;;16.77;;
33740;SDS011;20065;48.380;10.892;2023-04-08T07:08:04;22.15;;;16.17;;
33740;SDS011;20065;48.380;10.892;2023-04-08T07:10:51;25.52;;;16.52;;
33740;SDS011;20065;48.380;10.892;2023-04-08T07:13:38;27.77;;;17.65;;
33740;SDS011;20065;48.380;10.892;2023-04-08T07:16:24;22.30;;;16.83;;
33740;SDS011;20065;48.380;10.892;2023-04-08T07:19:10;23.05;;;16.33;;
33740;SDS011;20065;48.380;10.892;2023-04-08T07:21:57;26.08;;;16.90;;
33740;SDS011;20065;48.380;10.892;2023-04-08T07:24:43;23.85;;;16.83;;
33740;SDS011;20065;48.380;10.892;2023-04-08T07:27:34;23.85;;;16.83;;
33740;SDS011;20065;48.380;10.892;2023-04-08T07:30:21;22.58;;;15.45;;
33740;SDS011;20065;48.380;10.892;2023-04-08T07:33:07;24.27;;;16.75;;
33740;SDS011;20065;48.380;10.892;2023-04-08T07:35:54;25.60;;;16.85;;
33740;SDS011;20065;48.380;10.892;2023-04-08T07:38:40;24.35;;;17.98;;
33740;SDS011;20065;48.380;10.892;2023-04-08T07:41:26;23.10;;;15.32;;
33740;SDS011;20065;48.380;10.892;2023-04-08T07:44:13;24.70;;;16.10;;
33740;SDS011;20065;48.380;10.892;2023-04-08T07:47:01;24.00;;;17.50;;
33740;SDS011;20065;48.380;10.892;2023-04-08T07:49:48;24.13;;;17.80;;
33740;SDS011;20065;48.380;10.892;2023-04-08T07:52:34;22.95;;;16.35;;
33740;SDS011;20065;48.380;10.892;2023-04-08T07:55:20;21.95;;;16.38;;
33740;SDS011;20065;48.380;10.892;2023-04-08T07:58:08;21.00;;;15.38;;
33740;SDS011;20065;48.380;10.892;2023-04-08T08:00:55;22.60;;;15.13;;
33740;SDS011;20065;48.380;10.892;2023-04-08T08:03:42;22.35;;;15.88;;
33740;SDS011;20065;48.380;10.892;2023-04-08T08:06:28;18.17;;;13.23;;
33740;SDS011;20065;48.380;10.892;2023-04-08T08:09:17;20.90;;;14.20;;
33740;SDS011;20065;48.380;10.892;2023-04-08T08:12:03;22.30;;;15.00;;
33740;SDS011;20065;48.380;10.892;2023-04-08T08:14:49;22.25;;;15.25;;
33740;SDS011;20065;48.380;10.892;2023-04-08T08:17:36;23.17;;;14.55;;
33740;SDS011;20065;48.380;10.892;2023-04-08T08:20:30;18.95;;;14.63;;
33740;SDS011;20065;48.380;10.892;2023-04-08T08:23:16;20.35;;;14.82;;
33740;SDS011;20065;48.380;10.892;2023-04-08T08:26:06;20.92;;;14.45;;
33740;SDS011;20065;48.380;10.892;2023-04-08T08:28:56;20.80;;;14.32;;
33740;SDS011;20065;48.380;10.892;2023-04-08T08:31:45;20.60;;;15.40;;
33740;SDS011;20065;48.380;10.892;2023-04-08T08:34:32;19.63;;;14.60;;
33740;SDS011;20065;48.380;10.892;2023-04-08T08:37:19;18.40;;;13.82;;
33740;SDS011;20065;48.380;10.892;2023-04-08T08:40:05;21.70;;;15.27;;
33740;SDS011;20065;48.380;10.892;2023-04-08T08:42:52;19.63;;;13.18;;
33740;SDS011;20065;48.380;10.892;2023-04-08T08:45:39;20.60;;;15.40;;
33740;SDS011;20065;48.380;10.892;2023-04-08T08:48:26;21.35;;;14.50;;
33740;SDS011;20065;48.380;10.892;2023-04-08T08:51:13;19.63;;;14.32;;
33740;SDS011;20065;48.380;10.892;2023-04-08T08:54:02;17.10;;;12.02;;
33740;SDS011;20065;48.380;10.892;2023-04-08T08:56:50;18.55;;;13.20;;
33740;SDS011;20065;48.380;10.892;2023-04-08T08:59:39;22.58;;;15.70;;
33740;SDS011;20065;48.380;10.892;2023-04-08T09:02:29;20.95;;;14.68;;
33740;SDS011;20065;48.380;10.892;2023-04-08T09:05:17;20.67;;;14.55;;
33740;SDS011;20065;48.380;10.892;2023-04-08T09:08:05;18.90;;;13.38;;
33740;SDS011;20065;48.380;10.892;2023-04-08T09:11:15;19.58;;;14.40;;
33740;SDS011;20065;48.380;10.892;2023-04-08T09:14:02;24.00;;;14.55;;
33740;SDS011;20065;48.380;10.892;2023-04-08T09:16:49;21.83;;;14.68;;
33740;SDS011;20065;48.380;10.892;2023-04-08T09:19:36;22.65;;;15.13;;
33740;SDS011;20065;48.380;10.892;2023-04-08T09:22:22;22.50;;;16.15;;
33740;SDS011;20065;48.380;10.892;2023-04-08T09:25:42;22.38;;;15.32;;
33740;SDS011;20065;48.380;10.892;2023-04-08T09:28:22;25.65;;;15.90;;
33740;SDS011;20065;48.380;10.892;2023-04-08T09:31:19;22.27;;;15.48;;
33740;SDS011;20065;48.380;10.892;2023-04-08T09:34:10;23.02;;;15.93;;
33740;SDS011;20065;48.380;10.892;2023-04-08T09:37:05;19.75;;;14.10;;
33740;SDS011;20065;48.380;10.892;2023-04-08T09:39:51;20.00;;;14.00;;
33740;SDS011;20065;48.380;10.892;2023-04-08T09:42:39;21.65;;;14.23;;
33740;SDS011;20065;48.380;10.892;2023-04-08T09:45:28;21.58;;;13.85;;
33740;SDS011;20065;48.380;10.892;2023-04-08T09:48:16;22.85;;;15.18;;
33740;SDS011;20065;48.380;10.892;2023-04-08T09:51:10;19.38;;;13.40;;
33740;SDS011;20065;48.380;10.892;2023-04-08T09:54:02;26.17;;;14.57;;
33740;SDS011;20065;48.380;10.892;2023-04-08T09:57:00;22.00;;;14.88;;
33740;SDS011;20065;48.380;10.892;2023-04-08T10:00:09;21.60;;;15.18;;
33740;SDS011;20065;48.380;10.892;2023-04-08T10:06:09;21.10;;;14.07;;
33740;SDS011;20065;48.380;10.892;2023-04-08T10:08:56;20.83;;;14.25;;
33740;SDS011;20065;48.380;10.892;2023-04-08T10:11:43;25.30;;;15.07;;
33740;SDS011;20065;48.380;10.892;2023-04-08T10:14:30;22.67;;;16.17;;
33740;SDS011;20065;48.380;10.892;2023-04-08T10:17:23;18.42;;;13.00;;
33740;SDS011;20065;48.380;10.892;2023-04-08T10:20:59;16.77;;;12.52;;
33740;SDS011;20065;48.380;10.892;2023-04-08T10:23:51;21.38;;;14.00;;
33740;SDS011;20065;48.380;10.892;2023-04-08T10:26:44;18.10;;;12.90;;
33740;SDS011;20065;48.380;10.892;2023-04-08T10:29:30;21.70;;;14.52;;
33740;SDS011;20065;48.380;10.892;2023-04-08T10:32:26;20.27;;;13.50;;
33740;SDS011;20065;48.380;10.892;2023-04-08T10:35:14;17.17;;;13.40;;
33740;SDS011;20065;48.380;10.892;2023-04-08T10:38:00;20.45;;;13.90;;
33740;SDS011;20065;48.380;10.892;2023-04-08T10:40:47;20.00;;;13.50;;
33740;SDS011;20065;48.380;10.892;2023-04-08T10:43:34;18.00;;;12.97;;
33740;SDS011;20065;48.380;10.892;2023-04-08T10:46:22;19.30;;;13.90;;
33740;SDS011;20065;48.380;10.892;2023-04-08T10:49:12;20.63;;;13.70;;
33740;SDS011;20065;48.380;10.892;2023-04-08T10:51:58;18.67;;;13.30;;
33740;SDS011;20065;48.380;10.892;2023-04-08T10:54:45;21.20;;;12.33;;
33740;SDS011;20065;48.380;10.892;2023-04-08T10:57:32;17.97;;;14.00;;
33740;SDS011;20065;48.380;10.892;2023-04-08T11:00:27;16.43;;;12.73;;
33740;SDS011;20065;48.380;10.892;2023-04-08T11:03:18;19.70;;;12.90;;
33740;SDS011;20065;48.380;10.892;2023-04-08T11:06:04;20.80;;;13.03;;
33740;SDS011;20065;48.380;10.892;2023-04-08T11:08:51;15.40;;;11.87;;
33740;SDS011;20065;48.380;10.892;2023-04-08T11:11:38;16.73;;;12.70;;
33740;SDS011;20065;48.380;10.892;2023-04-08T11:14:26;17.17;;;13.20;;
33740;SDS011;20065;48.380;10.892;2023-04-08T11:17:14;18.73;;;13.60;;
33740;SDS011;20065;48.380;10.892;2023-04-08T11:20:00;15.20;;;11.80;;
33740;SDS011;20065;48.380;10.892;2023-04-08T11:22:50;19.23;;;12.87;;
33740;SDS011;20065;48.380;10.892;2023-04-08T11:25:36;17.27;;;12.60;;
33740;SDS011;20065;48.380;10.892;2023-04-08T11:28:23;19.80;;;13.47;;
33740;SDS011;20065;48.380;10.892;2023-04-08T11:31:11;18.37;;;12.80;;
33740;SDS011;20065;48.380;10.892;2023-04-08T11:33:57;18.17;;;12.70;;
33740;SDS011;20065;48.380;10.892;2023-04-08T11:36:43;18.33;;;13.17;;
33740;SDS011;20065;48.380;10.892;2023-04-08T11:39:32;18.23;;;12.40;;
33740;SDS011;20065;48.380;10.892;2023-04-08T11:42:27;18.73;;;12.40;;
33740;SDS011;20065;48.380;10.892;2023-04-08T11:45:15;17.23;;;12.90;;
33740;SDS011;20065;48.380;10.892;2023-04-08T11:48:09;16.60;;;12.17;;
33740;SDS011;20065;48.380;10.892;2023-04-08T11:51:05;18.43;;;13.40;;
33740;SDS011;20065;48.380;10.892;2023-04-08T11:53:58;15.80;;;11.63;;
33740;SDS011;20065;48.380;10.892;2023-04-08T11:56:45;16.33;;;12.10;;
33740;SDS011;20065;48.380;10.892;2023-04-08T11:59:31;18.47;;;12.43;;
33740;SDS011;20065;48.380;10.892;2023-04-08T12:02:17;14.23;;;11.00;;
33740;SDS011;20065;48.380;10.892;2023-04-08T12:05:03;17.07;;;11.23;;
33740;SDS011;20065;48.380;10.892;2023-04-08T12:07:50;15.73;;;12.10;;
33740;SDS011;20065;48.380;10.892;2023-04-08T12:10:36;16.20;;;11.73;;
33740;SDS011;20065;48.380;10.892;2023-04-08T12:13:22;19.37;;;11.27;;
33740;SDS011;20065;48.380;10.892;2023-04-08T12:16:08;15.75;;;11.93;;
33740;SDS011;20065;48.380;10.892;2023-04-08T12:18:55;21.42;;;11.40;;
33740;SDS011;20065;48.380;10.892;2023-04-08T12:21:41;17.50;;;12.85;;
33740;SDS011;20065;48.380;10.892;2023-04-08T12:24:27;15.68;;;11.73;;
33740;SDS011;20065;48.380;10.892;2023-04-08T12:27:13;17.73;;;12.90;;
33740;SDS011;20065;48.380;10.892;2023-04-08T12:30:00;19.10;;;12.45;;
33740;SDS011;20065;48.380;10.892;2023-04-08T12:32:47;23.65;;;13.73;;
33740;SDS011;20065;48.380;10.892;2023-04-08T12:35:33;19.33;;;12.48;;
33740;SDS011;20065;48.380;10.892;2023-04-08T12:38:19;19.98;;;11.32;;
33740;SDS011;20065;48.380;10.892;2023-04-08T12:41:06;16.40;;;12.23;;
33740;SDS011;20065;48.380;10.892;2023-04-08T12:43:52;17.15;;;12.20;;
33740;SDS011;20065;48.380;10.892;2023-04-08T12:46:38;20.05;;;12.73;;
33740;SDS011;20065;48.380;10.892;2023-04-08T12:49:25;17.95;;;11.45;;
33740;SDS011;20065;48.380;10.892;2023-04-08T12:52:11;17.92;;;12.25;;
33740;SDS011;20065;48.380;10.892;2023-04-08T12:54:57;15.90;;;11.90;;
33740;SDS011;20065;48.380;10.892;2023-04-08T12:57:44;13.45;;;10.43;;
33740;SDS011;20065;48.380;10.892;2023-04-08T13:00:30;15.90;;;10.15;;
33740;SDS011;20065;48.380;10.892;2023-04-08T13:03:16;18.33;;;11.18;;
33740;SDS011;20065;48.380;10.892;2023-04-08T13:06:02;13.88;;;10.07;;
33740;SDS011;20065;48.380;10.892;2023-04-08T13:08:48;18.75;;;11.32;;
33740;SDS011;20065;48.380;10.892;2023-04-08T13:11:38;13.88;;;9.38;;
33740;SDS011;20065;48.380;10.892;2023-04-08T13:14:24;12.15;;;9.18;;
33740;SDS011;20065;48.380;10.892;2023-04-08T13:17:10;12.52;;;9.88;;
33740;SDS011;20065;48.380;10.892;2023-04-08T13:19:56;14.48;;;9.40;;
33740;SDS011;20065;48.380;10.892;2023-04-08T13:22:42;13.95;;;10.35;;
33740;SDS011;20065;48.380;10.892;2023-04-08T13:25:29;12.77;;;9.32;;
33740;SDS011;20065;48.380;10.892;2023-04-08T13:28:15;10.02;;;8.30;;
33740;SDS011;20065;48.380;10.892;2023-04-08T13:31:02;15.05;;;11.50;;
33740;SDS011;20065;48.380;10.892;2023-04-08T13:33:48;13.38;;;9.45;;
33740;SDS011;20065;48.380;10.892;2023-04-08T13:36:34;13.93;;;10.88;;
33740;SDS011;20065;48.380;10.892;2023-04-08T13:39:20;15.60;;;11.15;;
33740;SDS011;20065;48.380;10.892;2023-04-08T13:42:06;16.10;;;12.43;;
33740;SDS011;20065;48.380;10.892;2023-04-08T13:44:52;15.48;;;11.40;;
33740;SDS011;20065;48.380;10.892;2023-04-08T13:47:38;16.92;;;11.98;;
33740;SDS011;20065;48.380;10.892;2023-04-08T13:50:25;16.25;;;11.25;;
33740;SDS011;20065;48.380;10.892;2023-04-08T13:53:11;13.20;;;10.13;;
33740;SDS011;20065;48.380;10.892;2023-04-08T13:55:57;16.88;;;11.63;;
33740;SDS011;20065;48.380;10.892;2023-04-08T13:58:43;14.32;;;10.98;;
33740;SDS011;20065;48.380;10.892;2023-04-08T14:01:31;13.43;;;10.32;;
33740;SDS011;20065;48.380;10.892;2023-04-08T14:04:18;12.60;;;9.85;;
33740;SDS011;20065;48.380;10.892;2023-04-08T14:07:05;12.77;;;9.80;;
33740;SDS011;20065;48.380;10.892;2023-04-08T14:09:51;14.40;;;10.60;;
33740;SDS011;20065;48.380;10.892;2023-04-08T14:12:40;16.08;;;9.65;;
33740;SDS011;20065;48.380;10.892;2023-04-08T14:15:26;14.70;;;9.35;;
33740;SDS011;20065;48.380;10.892;2023-04-08T14:18:12;15.68;;;9.80;;
33740;SDS011;20065;48.380;10.892;2023-04-08T14:21:01;12.18;;;9.80;;
33740;SDS011;20065;48.380;10.892;2023-04-08T14:23:50;11.65;;;10.00;;
33740;SDS011;20065;48.380;10.892;2023-04-08T14:26:37;11.35;;;8.90;;
33740;SDS011;20065;48.380;10.892;2023-04-08T14:29:23;12.65;;;9.65;;
33740;SDS011;20065;48.380;10.892;2023-04-08T14:32:12;12.88;;;9.95;;
33740;SDS011;20065;48.380;10.892;2023-04-08T14:34:58;10.50;;;9.05;;
33740;SDS011;20065;48.380;10.892;2023-04-08T14:37:44;12.07;;;9.20;;
33740;SDS011;20065;48.380;10.892;2023-04-08T14:40:31;10.30;;;8.10;;
33740;SDS011;20065;48.380;10.892;2023-04-08T14:43:17;10.57;;;8.75;;
33740;SDS011;20065;48.380;10.892;2023-04-08T14:46:03;10.43;;;8.45;;
33740;SDS011;20065;48.380;10.892;2023-04-08T14:48:50;10.85;;;9.02;;
33740;SDS011;20065;48.380;10.892;2023-04-08T14:51:36;12.32;;;8.43;;
33740;SDS011;20065;48.380;10.892;2023-04-08T14:54:22;12.30;;;9.00;;
33740;SDS011;20065;48.380;10.892;2023-04-08T14:57:08;9.57;;;7.70;;
33740;SDS011;20065;48.380;10.892;2023-04-08T14:59:54;10.68;;;7.97;;
33740;SDS011;20065;48.380;10.892;2023-04-08T15:02:41;10.15;;;8.20;;
33740;SDS011;20065;48.380;10.892;2023-04-08T15:05:27;11.50;;;8.30;;
33740;SDS011;20065;48.380;10.892;2023-04-08T15:08:14;10.75;;;8.25;;
33740;SDS011;20065;48.380;10.892;2023-04-08T15:11:00;11.68;;;7.22;;
33740;SDS011;20065;48.380;10.892;2023-04-08T15:13:46;10.15;;;8.05;;
33740;SDS011;20065;48.380;10.892;2023-04-08T15:16:32;9.85;;;7.93;;
33740;SDS011;20065;48.380;10.892;2023-04-08T15:19:18;10.10;;;7.75;;
33740;SDS011;20065;48.380;10.892;2023-04-08T15:22:05;14.88;;;9.30;;
33740;SDS011;20065;48.380;10.892;2023-04-08T15:24:51;13.35;;;8.98;;
33740;SDS011;20065;48.380;10.892;2023-04-08T15:27:37;11.65;;;9.20;;
33740;SDS011;20065;48.380;10.892;2023-04-08T15:30:23;12.43;;;9.30;;
33740;SDS011;20065;48.380;10.892;2023-04-08T15:33:10;13.90;;;9.88;;
33740;SDS011;20065;48.380;10.892;2023-04-08T15:35:58;20.45;;;10.10;;
33740;SDS011;20065;48.380;10.892;2023-04-08T15:38:47;14.25;;;10.20;;
33740;SDS011;20065;48.380;10.892;2023-04-08T15:41:45;14.45;;;10.25;;
33740;SDS011;20065;48.380;10.892;2023-04-08T15:44:31;13.15;;;10.07;;
33740;SDS011;20065;48.380;10.892;2023-04-08T15:47:17;14.68;;;10.27;;
33740;SDS011;20065;48.380;10.892;2023-04-08T15:50:03;12.60;;;9.30;;
33740;SDS011;20065;48.380;10.892;2023-04-08T15:52:50;13.48;;;9.85;;
33740;SDS011;20065;48.380;10.892;2023-04-08T15:55:37;13.50;;;10.02;;
33740;SDS011;20065;48.380;10.892;2023-04-08T15:58:29;13.52;;;9.45;;
33740;SDS011;20065;48.380;10.892;2023-04-08T16:01:18;12.70;;;9.77;;
33740;SDS011;20065;48.380;10.892;2023-04-08T16:04:04;11.20;;;8.75;;
33740;SDS011;20065;48.380;10.892;2023-04-08T16:06:51;13.10;;;9.30;;
33740;SDS011;20065;48.380;10.892;2023-04-08T16:09:37;14.80;;;9.73;;
33740;SDS011;20065;48.380;10.892;2023-04-08T16:12:23;12.10;;;9.10;;
33740;SDS011;20065;48.380;10.892;2023-04-08T16:15:10;12.88;;;8.57;;